Time;durP1;ratioP1;P1;durP2;ratioP2;P2;SDS_P1;SDS_P2;PMS_P1;PMS_P2;Temp;Humidity;BMP_temperature;BMP_pressure;BME280_temperature;BME280_humidity;BME280_pressure;Samples;Min_cycle;Max_cycle;Signal;HPM_P1;HPM_P2
2023/12/27 00:02:26;;;;;;;1.00;0.93;;;22.50;57.70;;;;;;4919747;29;20472;-85
2023/12/27 00:04:58;;;;;;;0.70;0.70;;;22.50;57.70;;;;;;4936164;29;20940;-85
2023/12/27 00:07:27;;;;;;;2.13;2.03;;;22.50;57.70;;;;;;4935252;29;20984;-85
2023/12/27 00:09:56;;;;;;;1.10;1.10;;;22.50;57.70;;;;;;4935704;29;20943;-86
2023/12/27 00:12:24;;;;;;;0.87;0.87;;;22.50;57.70;;;;;;4940464;29;20446;-85
2023/12/27 00:14:52;;;;;;;0.67;0.67;;;22.40;57.70;;;;;;4935476;29;20440;-85
2023/12/27 00:17:20;;;;;;;1.10;1.00;;;22.50;57.70;;;;;;4943879;29;20464;-86
2023/12/27 00:19:49;;;;;;;1.00;1.00;;;22.40;57.70;;;;;;4935015;29;20518;-85
2023/12/27 00:22:17;;;;;;;1.10;1.00;;;22.40;57.70;;;;;;4934702;29;20485;-85
2023/12/27 00:24:48;;;;;;;0.83;0.83;;;22.40;57.70;;;;;;4934777;29;20448;-85
2023/12/27 00:27:16;;;;;;;0.80;0.80;;;22.40;57.70;;;;;;4919799;29;20494;-85
2023/12/27 00:29:45;;;;;;;0.80;0.80;;;22.40;57.70;;;;;;4927386;29;20464;-85
2023/12/27 00:32:15;;;;;;;0.80;0.80;;;22.40;57.70;;;;;;4937069;29;20464;-87
2023/12/27 00:34:43;;;;;;;1.07;0.90;;;22.40;57.70;;;;;;4937174;29;20464;-87
2023/12/27 00:37:11;;;;;;;0.80;0.80;;;22.40;57.80;;;;;;4930772;29;20549;-85
2023/12/27 00:39:39;;;;;;;0.80;0.80;;;22.40;57.70;;;;;;4920693;29;20463;-85
2023/12/27 00:42:09;;;;;;;2.63;1.00;;;22.40;57.70;;;;;;4936418;29;20558;-85
2023/12/27 00:44:37;;;;;;;1.00;0.93;;;22.40;57.80;;;;;;4931101;29;20457;-85
2023/12/27 00:47:06;;;;;;;1.20;1.10;;;22.40;57.80;;;;;;4936841;29;20479;-85
2023/12/27 00:49:34;;;;;;;0.90;0.90;;;22.30;57.80;;;;;;4939346;29;20462;-89
2023/12/27 00:52:02;;;;;;;0.97;0.80;;;22.30;57.80;;;;;;4938776;29;20463;-85
2023/12/27 00:54:32;;;;;;;0.77;0.77;;;22.30;57.80;;;;;;4923859;29;20474;-85
2023/12/27 00:57:00;;;;;;;0.87;0.87;;;22.30;57.80;;;;;;4938607;29;20458;-84
2023/12/27 00:59:30;;;;;;;1.03;1.00;;;22.30;57.80;;;;;;4923774;29;20454;-83
2023/12/27 01:01:58;;;;;;;0.83;0.83;;;22.30;57.80;;;;;;4940159;29;20447;-83
2023/12/27 01:04:26;;;;;;;0.70;0.70;;;22.30;57.80;;;;;;4924292;29;20459;-83
2023/12/27 01:06:55;;;;;;;0.97;0.97;;;22.30;57.80;;;;;;4934852;29;20492;-83
2023/12/27 01:09:23;;;;;;;0.80;0.80;;;22.30;57.80;;;;;;4944982;29;20577;-83
2023/12/27 01:11:52;;;;;;;0.87;0.87;;;22.30;57.80;;;;;;4926598;29;20821;-83
2023/12/27 01:14:20;;;;;;;0.70;0.70;;;22.30;57.80;;;;;;4942027;29;20467;-84
2023/12/27 01:16:50;;;;;;;0.80;0.80;;;22.30;57.80;;;;;;4939586;29;20455;-83
2023/12/27 01:19:18;;;;;;;0.80;0.80;;;22.30;57.80;;;;;;4922747;29;20476;-83
2023/12/27 01:21:46;;;;;;;0.70;0.70;;;22.30;57.80;;;;;;4939287;29;20457;-82
2023/12/27 01:24:15;;;;;;;0.80;0.80;;;22.30;57.80;;;;;;4921516;29;21188;-83
2023/12/27 01:26:43;;;;;;;0.70;0.70;;;22.30;57.80;;;;;;4938668;29;20566;-83
2023/12/27 01:29:11;;;;;;;0.80;0.80;;;22.30;57.80;;;;;;4926447;29;20499;-83
2023/12/27 01:31:39;;;;;;;1.30;0.90;;;22.30;57.80;;;;;;4939459;29;20463;-82
2023/12/27 01:34:09;;;;;;;0.60;0.60;;;22.30;57.80;;;;;;4920482;29;20475;-82
2023/12/27 01:36:49;;;;;;;1.90;0.90;;;22.20;57.80;;;;;;4942159;29;20524;-83
2023/12/27 01:39:17;;;;;;;1.10;1.10;;;22.20;57.80;;;;;;4936732;29;20550;-83
2023/12/27 01:41:46;;;;;;;0.73;0.70;;;22.20;57.80;;;;;;4935629;29;20467;-82
2023/12/27 01:44:14;;;;;;;0.50;0.50;;;22.20;57.80;;;;;;4930480;29;20495;-83
2023/12/27 01:46:42;;;;;;;0.70;0.70;;;22.20;57.80;;;;;;4941427;29;20872;-82
2023/12/27 01:49:12;;;;;;;1.00;0.90;;;22.20;57.80;;;;;;4936864;29;20445;-83
2023/12/27 01:51:41;;;;;;;1.80;1.00;;;22.20;57.80;;;;;;4935029;29;21298;-83
2023/12/27 01:54:11;;;;;;;1.27;1.17;;;22.20;57.80;;;;;;4936271;29;20999;-82
2023/12/27 01:56:40;;;;;;;0.70;0.70;;;22.20;57.80;;;;;;4938709;29;20482;-83
2023/12/27 01:59:08;;;;;;;1.00;1.00;;;22.20;57.80;;;;;;4917850;29;20544;-83
2023/12/27 02:01:37;;;;;;;1.03;0.97;;;22.20;57.80;;;;;;4936400;29;20465;-84
2023/12/27 02:04:05;;;;;;;0.80;0.80;;;22.20;57.80;;;;;;4927310;29;20470;-85
2023/12/27 02:06:35;;;;;;;0.70;0.70;;;22.20;57.80;;;;;;4935040;29;20968;-82
2023/12/27 02:09:05;;;;;;;1.10;1.10;;;22.20;57.80;;;;;;4930035;29;20515;-86
2023/12/27 02:11:33;;;;;;;1.10;0.77;;;22.20;57.80;;;;;;4921796;29;20480;-82
2023/12/27 02:14:01;;;;;;;0.70;0.70;;;22.20;57.80;;;;;;4935756;29;20466;-83
2023/12/27 02:16:30;;;;;;;0.67;0.67;;;22.20;57.80;;;;;;4947248;29;20494;-82
2023/12/27 02:19:00;;;;;;;1.43;0.90;;;22.20;57.70;;;;;;4918784;29;20459;-84
2023/12/27 02:21:29;;;;;;;0.70;0.60;;;22.20;57.80;;;;;;4935168;29;20455;-82
2023/12/27 02:24:02;;;;;;;0.90;0.90;;;22.20;57.80;;;;;;4933421;29;20510;-83
2023/12/27 02:26:35;;;;;;;0.70;0.60;;;22.20;57.80;;;;;;4926814;29;20523;-83
2023/12/27 02:29:03;;;;;;;0.80;0.67;;;22.20;57.80;;;;;;4938399;29;20854;-83
2023/12/27 02:31:32;;;;;;;0.70;0.70;;;22.10;57.80;;;;;;4942101;29;20463;-83
2023/12/27 02:34:00;;;;;;;0.70;0.70;;;22.10;57.70;;;;;;4933456;29;20468;-86
2023/12/27 02:36:29;;;;;;;0.80;0.80;;;22.10;57.70;;;;;;4941060;29;20455;-83
2023/12/27 02:38:57;;;;;;;0.83;0.83;;;22.10;57.80;;;;;;4935607;29;20535;-83
2023/12/27 02:41:25;;;;;;;0.83;0.83;;;22.10;57.80;;;;;;4934795;29;20463;-83
2023/12/27 02:43:55;;;;;;;1.10;1.00;;;22.10;57.80;;;;;;4934296;29;20582;-88
2023/12/27 02:46:23;;;;;;;0.70;0.67;;;22.10;57.80;;;;;;4933454;29;20829;-82
2023/12/27 02:48:51;;;;;;;0.83;0.83;;;22.10;57.70;;;;;;4917913;29;20475;-83
2023/12/27 02:51:20;;;;;;;1.73;0.70;;;22.10;57.80;;;;;;4942171;29;20942;-86
2023/12/27 02:53:48;;;;;;;0.60;0.60;;;22.10;57.80;;;;;;4940380;29;20450;-83
2023/12/27 02:56:16;;;;;;;0.90;0.90;;;22.10;57.80;;;;;;4935353;29;20817;-83
2023/12/27 02:58:45;;;;;;;1.10;1.00;;;22.10;57.80;;;;;;4933824;29;20805;-83
2023/12/27 03:01:15;;;;;;;0.80;0.80;;;22.10;57.80;;;;;;4934087;29;20814;-83
2023/12/27 03:03:45;;;;;;;0.90;0.90;;;22.10;57.80;;;;;;4917489;29;20469;-84
2023/12/27 03:06:13;;;;;;;0.77;0.77;;;22.10;57.80;;;;;;4944503;29;20819;-86
2023/12/27 03:08:41;;;;;;;0.70;0.70;;;22.10;57.80;;;;;;4917935;29;20476;-82
2023/12/27 03:11:09;;;;;;;0.63;0.63;;;22.10;57.70;;;;;;4922149;29;20464;-82
2023/12/27 03:13:38;;;;;;;0.80;0.80;;;22.10;57.80;;;;;;4927345;29;20489;-83
2023/12/27 03:16:06;;;;;;;0.90;0.80;;;22.10;57.70;;;;;;4943285;29;20451;-86
2023/12/27 03:18:39;;;;;;;1.33;0.83;;;22.00;57.80;;;;;;4934313;29;20806;-88
2023/12/27 03:21:09;;;;;;;0.70;0.70;;;22.00;57.70;;;;;;4928492;29;20464;-83
2023/12/27 03:23:36;;;;;;;0.80;0.80;;;22.10;57.80;;;;;;4900338;29;20514;-85
2023/12/27 03:26:04;;;;;;;1.13;0.93;;;22.00;57.80;;;;;;4940199;29;20475;-85
2023/12/27 03:28:32;;;;;;;0.87;0.87;;;22.00;57.80;;;;;;4946594;29;20478;-83
2023/12/27 03:31:01;;;;;;;0.80;0.80;;;22.00;57.80;;;;;;4933821;29;20475;-83
2023/12/27 03:33:29;;;;;;;0.80;0.73;;;22.00;57.70;;;;;;4941670;29;20459;-84
2023/12/27 03:35:59;;;;;;;0.83;0.83;;;22.00;57.80;;;;;;4916479;29;21010;-82
2023/12/27 03:38:28;;;;;;;0.80;0.80;;;22.00;57.80;;;;;;4933128;29;20558;-82
2023/12/27 03:40:56;;;;;;;0.60;0.60;;;22.00;57.80;;;;;;4933604;29;20451;-83
2023/12/27 03:43:24;;;;;;;0.90;0.90;;;22.00;57.80;;;;;;4916610;29;20463;-83
2023/12/27 03:45:54;;;;;;;0.70;0.70;;;22.00;57.80;;;;;;4932888;29;20467;-84
2023/12/27 03:48:22;;;;;;;0.70;0.70;;;22.00;57.80;;;;;;4933789;29;20902;-83
2023/12/27 03:50:51;;;;;;;0.80;0.80;;;22.00;57.80;;;;;;4917315;29;20471;-84
2023/12/27 03:53:21;;;;;;;1.13;1.00;;;22.00;57.80;;;;;;4932338;29;20467;-83
2023/12/27 03:55:49;;;;;;;0.70;0.70;;;22.00;57.80;;;;;;4936040;29;21037;-83
2023/12/27 03:58:18;;;;;;;0.87;0.87;;;22.00;57.80;;;;;;4931455;29;20464;-83
2023/12/27 04:00:47;;;;;;;0.60;0.60;;;22.00;57.80;;;;;;4934050;29;20845;-86
2023/12/27 04:03:15;;;;;;;0.73;0.73;;;22.00;57.80;;;;;;4915440;29;20528;-83
2023/12/27 04:05:44;;;;;;;0.73;0.73;;;22.00;57.80;;;;;;4934258;29;20859;-84
2023/12/27 04:08:12;;;;;;;0.70;0.70;;;22.00;57.80;;;;;;4933425;29;21231;-83
2023/12/27 04:10:42;;;;;;;0.80;0.80;;;22.00;57.80;;;;;;4917352;29;20477;-85
2023/12/27 04:13:11;;;;;;;0.77;0.77;;;22.00;57.80;;;;;;4933338;29;20955;-83
2023/12/27 04:15:41;;;;;;;0.63;0.60;;;22.00;57.80;;;;;;4934266;29;20498;-83
2023/12/27 04:18:11;;;;;;;1.43;0.77;;;22.00;57.80;;;;;;4934118;29;20456;-83
2023/12/27 04:20:40;;;;;;;0.97;0.87;;;22.00;57.80;;;;;;4916866;29;20629;-86
2023/12/27 04:23:08;;;;;;;1.17;0.90;;;21.90;57.80;;;;;;4933924;29;20491;-83
2023/12/27 04:25:36;;;;;;;0.60;0.60;;;21.90;57.80;;;;;;4934580;29;20473;-83
2023/12/27 04:28:06;;;;;;;0.83;0.83;;;21.90;57.80;;;;;;4914671;29;20479;-85
2023/12/27 04:30:34;;;;;;;1.17;1.10;;;21.90;57.80;;;;;;4915919;29;21221;-82
2023/12/27 04:33:03;;;;;;;0.63;0.60;;;21.90;57.80;;;;;;4916588;29;20901;-83
2023/12/27 04:35:32;;;;;;;0.60;0.60;;;21.90;57.80;;;;;;4929393;29;20464;-82
2023/12/27 04:38:00;;;;;;;1.20;1.20;;;21.90;57.80;;;;;;4915936;29;20475;-83
2023/12/27 04:40:28;;;;;;;0.80;0.80;;;21.90;57.80;;;;;;4933835;29;20805;-88
2023/12/27 04:42:57;;;;;;;0.80;0.80;;;21.90;57.80;;;;;;4931732;29;20460;-82
2023/12/27 04:45:26;;;;;;;1.30;0.87;;;21.90;57.80;;;;;;4930882;29;20471;-86
2023/12/27 04:47:54;;;;;;;0.70;0.70;;;21.90;57.80;;;;;;4915255;29;20561;-84
2023/12/27 04:50:23;;;;;;;0.70;0.70;;;21.90;57.90;;;;;;4929266;29;20464;-84
2023/12/27 04:52:51;;;;;;;0.87;0.70;;;21.90;57.90;;;;;;4936102;29;20491;-83
2023/12/27 04:55:20;;;;;;;1.30;1.20;;;21.80;57.90;;;;;;4942749;29;20473;-83
2023/12/27 04:57:48;;;;;;;0.80;0.70;;;21.90;57.80;;;;;;4934582;29;20555;-83
2023/12/27 05:00:17;;;;;;;1.13;0.90;;;21.80;57.80;;;;;;4908712;29;20565;-82
2023/12/27 05:02:46;;;;;;;0.80;0.80;;;21.80;57.80;;;;;;4937877;29;20521;-83
2023/12/27 05:05:18;;;;;;;0.80;0.80;;;21.80;57.90;;;;;;4933520;29;20480;-83
2023/12/27 05:07:46;;;;;;;0.80;0.80;;;21.90;57.90;;;;;;4917505;29;20795;-82
2023/12/27 05:10:15;;;;;;;1.00;1.00;;;21.90;57.90;;;;;;4916694;29;20488;-82
2023/12/27 05:12:43;;;;;;;0.67;0.67;;;21.90;57.90;;;;;;4932117;29;20463;-83
2023/12/27 05:15:11;;;;;;;2.83;0.80;;;22.00;57.90;;;;;;4940981;29;20468;-83
2023/12/27 05:17:40;;;;;;;0.70;0.70;;;22.00;57.90;;;;;;4918490;29;20471;-86
2023/12/27 05:20:10;;;;;;;1.07;0.97;;;22.10;57.90;;;;;;4927626;29;20587;-83
2023/12/27 05:22:39;;;;;;;0.70;0.70;;;22.10;57.90;;;;;;4937730;29;20494;-86
2023/12/27 05:25:08;;;;;;;0.73;0.73;;;22.20;57.80;;;;;;4927933;29;20461;-83
2023/12/27 05:27:36;;;;;;;0.80;0.77;;;22.20;57.80;;;;;;4933593;29;20508;-83
2023/12/27 05:30:08;;;;;;;0.70;0.70;;;22.30;57.70;;;;;;4944818;29;20486;-87
2023/12/27 05:32:37;;;;;;;0.60;0.60;;;22.30;57.70;;;;;;4940659;29;20459;-83
2023/12/27 05:35:08;;;;;;;0.93;0.87;;;22.40;57.60;;;;;;4935537;29;20965;-84
2023/12/27 05:37:38;;;;;;;0.60;0.60;;;22.50;57.60;;;;;;4929262;29;20536;-83
2023/12/27 05:40:08;;;;;;;0.93;0.83;;;22.50;57.60;;;;;;4938983;29;20868;-84
2023/12/27 05:42:36;;;;;;;0.63;0.63;;;22.60;57.50;;;;;;4940142;29;20994;-83
2023/12/27 05:45:05;;;;;;;0.83;0.80;;;22.70;57.30;;;;;;4940526;29;20936;-84
2023/12/27 05:47:33;;;;;;;0.70;0.70;;;22.70;57.30;;;;;;4947929;29;20455;-82
2023/12/27 05:50:02;;;;;;;0.70;0.70;;;22.80;57.20;;;;;;4928193;29;20491;-83
2023/12/27 05:52:30;;;;;;;1.27;0.80;;;22.80;57.10;;;;;;4946914;29;20520;-87
2023/12/27 05:55:00;;;;;;;1.13;1.03;;;22.90;57.10;;;;;;4936461;29;20460;-83
2023/12/27 05:57:28;;;;;;;0.60;0.60;;;22.90;57.00;;;;;;4927072;29;20464;-82
2023/12/27 05:59:56;;;;;;;0.63;0.53;;;23.00;56.90;;;;;;4936437;29;20540;-83
2023/12/27 06:02:24;;;;;;;0.60;0.60;;;23.00;56.80;;;;;;4936532;29;20511;-83
2023/12/27 06:04:52;;;;;;;0.70;0.70;;;23.00;56.80;;;;;;4930591;29;20460;-83
2023/12/27 06:07:21;;;;;;;0.70;0.70;;;23.00;56.80;;;;;;4924351;29;20458;-83
2023/12/27 06:09:49;;;;;;;0.50;0.50;;;23.00;56.80;;;;;;4941281;29;20568;-85
2023/12/27 06:12:19;;;;;;;0.70;0.70;;;22.90;56.80;;;;;;4943773;29;20456;-84
2023/12/27 06:14:47;;;;;;;1.17;0.67;;;22.90;56.80;;;;;;4931793;29;20460;-83
2023/12/27 06:17:15;;;;;;;0.80;0.80;;;22.90;56.80;;;;;;4932563;29;20468;-86
2023/12/27 06:19:44;;;;;;;0.80;0.80;;;22.80;56.80;;;;;;4936276;29;20887;-83
2023/12/27 06:22:12;;;;;;;0.87;0.60;;;22.80;56.90;;;;;;4934962;29;20479;-83
2023/12/27 06:24:41;;;;;;;0.80;0.80;;;22.80;56.90;;;;;;4935356;29;20457;-85
2023/12/27 06:27:12;;;;;;;0.70;0.70;;;22.70;57.00;;;;;;4941579;29;20553;-86
2023/12/27 06:29:42;;;;;;;0.70;0.60;;;22.70;57.00;;;;;;4926501;29;20933;-86
2023/12/27 06:32:10;;;;;;;0.70;0.70;;;22.70;57.00;;;;;;4938578;29;21059;-84
2023/12/27 06:34:38;;;;;;;0.90;0.60;;;22.60;57.10;;;;;;4942396;29;20590;-84
2023/12/27 06:37:06;;;;;;;1.10;1.00;;;22.60;57.20;;;;;;4938968;29;21008;-83
2023/12/27 06:39:35;;;;;;;0.60;0.60;;;22.60;57.20;;;;;;4935387;29;20531;-84
2023/12/27 06:42:03;;;;;;;0.60;0.60;;;22.50;57.30;;;;;;4933098;29;20838;-83
2023/12/27 06:44:32;;;;;;;0.80;0.80;;;22.50;57.30;;;;;;4935480;29;20459;-84
2023/12/27 06:47:01;;;;;;;1.00;0.90;;;22.50;57.40;;;;;;4928656;29;20473;-86
2023/12/27 06:49:30;;;;;;;1.20;0.70;;;22.40;57.40;;;;;;4932041;29;21035;-83
2023/12/27 06:51:58;;;;;;;0.70;0.70;;;22.40;57.50;;;;;;4942861;29;20981;-84
2023/12/27 06:54:26;;;;;;;0.80;0.80;;;22.40;57.50;;;;;;4932032;29;20801;-84
2023/12/27 06:56:54;;;;;;;0.50;0.50;;;22.40;57.60;;;;;;4927241;29;20557;-84
2023/12/27 06:59:22;;;;;;;0.73;0.60;;;22.50;57.60;;;;;;4935005;29;20459;-83
2023/12/27 07:01:51;;;;;;;0.70;0.70;;;22.50;57.60;;;;;;4917802;29;20539;-84
2023/12/27 07:04:20;;;;;;;0.70;0.70;;;22.50;57.60;;;;;;4926841;29;20796;-83
2023/12/27 07:06:48;;;;;;;0.57;0.57;;;22.50;57.50;;;;;;4930965;29;20462;-84
2023/12/27 07:09:17;;;;;;;1.23;0.70;;;22.50;57.50;;;;;;4934653;29;20851;-83
2023/12/27 07:11:48;;;;;;;0.53;0.53;;;22.60;57.50;;;;;;4933962;29;20453;-84
2023/12/27 07:14:16;;;;;;;0.60;0.60;;;22.60;57.50;;;;;;4917625;29;20460;-84
2023/12/27 07:16:45;;;;;;;0.53;0.50;;;22.60;57.30;;;;;;4929892;29;20466;-83
2023/12/27 07:19:13;;;;;;;0.60;0.57;;;22.70;57.30;;;;;;4939827;29;21079;-83
2023/12/27 07:21:43;;;;;;;0.60;0.60;;;22.70;57.30;;;;;;4920582;29;20441;-84
2023/12/27 07:24:11;;;;;;;0.80;0.70;;;22.70;57.30;;;;;;4934095;29;21042;-84
2023/12/27 07:26:40;;;;;;;0.47;0.47;;;22.70;57.30;;;;;;4945720;29;20530;-84
2023/12/27 07:29:08;;;;;;;1.67;0.80;;;22.70;57.20;;;;;;4934345;29;20828;-84
2023/12/27 07:31:36;;;;;;;0.50;0.50;;;22.70;57.20;;;;;;4936542;29;20456;-85
2023/12/27 07:34:04;;;;;;;0.90;0.90;;;22.80;57.20;;;;;;4932560;29;20550;-83
2023/12/27 07:36:33;;;;;;;0.93;0.67;;;22.70;57.10;;;;;;4933102;29;20460;-84
2023/12/27 07:39:05;;;;;;;0.70;0.70;;;22.80;57.10;;;;;;4934580;29;20454;-83
2023/12/27 07:41:34;;;;;;;1.07;0.70;;;22.70;57.10;;;;;;4933237;29;20455;-84
2023/12/27 07:44:02;;;;;;;0.70;0.70;;;22.70;57.10;;;;;;4916874;29;20577;-83
2023/12/27 07:46:30;;;;;;;0.80;0.80;;;22.70;57.10;;;;;;4940531;29;20471;-84
2023/12/27 07:48:58;;;;;;;0.50;0.50;;;22.70;57.10;;;;;;4933862;29;20941;-83
2023/12/27 07:51:27;;;;;;;0.97;0.60;;;22.70;57.10;;;;;;4930567;29;20484;-84
2023/12/27 07:53:55;;;;;;;0.87;0.83;;;22.70;57.10;;;;;;4935403;29;20488;-84
2023/12/27 07:56:28;;;;;;;0.60;0.60;;;22.60;57.10;;;;;;4932624;29;20824;-84
2023/12/27 07:58:57;;;;;;;0.90;0.50;;;22.60;57.20;;;;;;4931563;29;21026;-85
2023/12/27 08:01:28;;;;;;;0.70;0.70;;;22.60;57.30;;;;;;4934204;29;20468;-85
2023/12/27 08:03:56;;;;;;;0.60;0.60;;;22.60;57.30;;;;;;4914799;29;20890;-87
2023/12/27 08:06:24;;;;;;;0.80;0.80;;;22.60;57.30;;;;;;4938672;29;20500;-84
2023/12/27 08:08:52;;;;;;;0.80;0.80;;;22.50;57.40;;;;;;4934821;29;20996;-84
2023/12/27 08:11:21;;;;;;;0.70;0.70;;;22.50;57.40;;;;;;4936534;29;20491;-86
2023/12/27 08:13:51;;;;;;;0.70;0.70;;;22.50;57.40;;;;;;4939831;29;20447;-83
2023/12/27 08:16:19;;;;;;;0.90;0.90;;;22.50;57.40;;;;;;4940828;29;20939;-83
2023/12/27 08:18:48;;;;;;;1.00;0.80;;;22.50;57.40;;;;;;4936353;29;20876;-84
2023/12/27 08:21:16;;;;;;;0.70;0.70;;;22.50;57.50;;;;;;4931130;29;20460;-84
2023/12/27 08:23:45;;;;;;;0.63;0.63;;;22.50;57.50;;;;;;4925990;29;21020;-83
2023/12/27 08:26:14;;;;;;;0.60;0.43;;;22.50;57.50;;;;;;4928597;29;20978;-84
2023/12/27 08:28:42;;;;;;;0.70;0.70;;;22.60;57.50;;;;;;4925974;29;20480;-85
2023/12/27 08:31:13;;;;;;;1.10;0.87;;;22.60;57.50;;;;;;4930040;29;20483;-88
2023/12/27 08:33:44;;;;;;;0.70;0.70;;;22.60;57.30;;;;;;4931559;29;20487;-83
2023/12/27 08:36:12;;;;;;;0.70;0.70;;;22.60;57.30;;;;;;4934365;29;20463;-86
2023/12/27 08:38:41;;;;;;;0.80;0.80;;;22.70;57.30;;;;;;4928392;29;20473;-87
2023/12/27 08:41:09;;;;;;;0.57;0.57;;;22.70;57.20;;;;;;4932385;29;20457;-83
2023/12/27 08:43:38;;;;;;;2.17;0.70;;;22.70;57.20;;;;;;4932512;29;20874;-86
2023/12/27 08:46:09;;;;;;;0.60;0.60;;;22.70;57.20;;;;;;4932308;29;20456;-86
2023/12/27 08:48:38;;;;;;;0.60;0.60;;;22.80;57.20;;;;;;4929537;29;20948;-85
2023/12/27 08:51:07;;;;;;;0.43;0.43;;;22.80;57.10;;;;;;4923780;29;20479;-86
2023/12/27 08:53:35;;;;;;;0.80;0.80;;;22.80;57.10;;;;;;4945622;29;20495;-89
2023/12/27 08:56:04;;;;;;;0.83;0.83;;;22.80;57.10;;;;;;4932174;29;20521;-86
2023/12/27 08:58:32;;;;;;;1.00;0.60;;;22.80;57.00;;;;;;4938074;29;20448;-86
2023/12/27 09:01:01;;;;;;;0.60;0.60;;;22.80;57.00;;;;;;4935794;29;20460;-88
2023/12/27 09:03:30;;;;;;;0.83;0.83;;;22.80;57.00;;;;;;4936672;29;20451;-88
2023/12/27 09:06:00;;;;;;;1.43;0.70;;;22.80;57.00;;;;;;4926459;29;20974;-86
2023/12/27 09:08:28;;;;;;;0.77;0.70;;;22.80;57.00;;;;;;4936113;29;20464;-86
2023/12/27 09:10:56;;;;;;;0.80;0.80;;;22.80;57.00;;;;;;4932614;29;20570;-84
2023/12/27 09:13:25;;;;;;;0.90;0.90;;;22.80;57.00;;;;;;4932440;29;20893;-85
2023/12/27 09:15:53;;;;;;;0.77;0.77;;;22.80;57.00;;;;;;4936819;29;20538;-86
2023/12/27 09:18:21;;;;;;;0.90;0.90;;;22.80;57.00;;;;;;4919259;29;20499;-86
2023/12/27 09:20:49;;;;;;;0.60;0.60;;;22.80;57.00;;;;;;4919982;29;20512;-86
2023/12/27 09:23:19;;;;;;;1.20;1.00;;;22.80;57.10;;;;;;4934471;29;20496;-86
2023/12/27 09:25:47;;;;;;;0.60;0.60;;;22.70;57.10;;;;;;4934497;29;20453;-85
2023/12/27 09:28:15;;;;;;;0.60;0.60;;;22.70;57.10;;;;;;4926296;29;20476;-86
2023/12/27 09:30:44;;;;;;;0.50;0.50;;;22.70;57.10;;;;;;4929758;29;20512;-90
2023/12/27 09:33:12;;;;;;;1.73;0.90;;;22.70;57.10;;;;;;4926306;29;22139;-85
2023/12/27 09:35:45;;;;;;;1.17;0.80;;;22.70;57.10;;;;;;4932602;29;20518;-84
2023/12/27 09:38:13;;;;;;;0.90;0.83;;;22.60;57.10;;;;;;4925386;29;20478;-86
2023/12/27 09:40:43;;;;;;;0.53;0.53;;;22.60;57.10;;;;;;4932265;29;20604;-85
2023/12/27 09:43:12;;;;;;;0.83;0.83;;;22.60;57.40;;;;;;4919493;29;20528;-87
2023/12/27 09:45:42;;;;;;;0.60;0.60;;;22.60;57.40;;;;;;4932573;29;20513;-93
2023/12/27 09:48:12;;;;;;;0.70;0.70;;;22.60;57.50;;;;;;4926869;29;20480;-86
2023/12/27 09:50:41;;;;;;;1.10;0.90;;;22.60;57.50;;;;;;4934433;29;20817;-87
2023/12/27 09:53:11;;;;;;;0.70;0.70;;;22.60;57.40;;;;;;4938272;29;20511;-85
2023/12/27 09:55:40;;;;;;;0.73;0.73;;;22.70;57.40;;;;;;4929734;29;20468;-84
2023/12/27 09:58:10;;;;;;;1.00;0.90;;;22.70;57.40;;;;;;4942254;29;20460;-84
2023/12/27 10:00:43;;;;;;;0.60;0.60;;;22.70;57.40;;;;;;4935859;29;20532;-84
2023/12/27 10:03:15;;;;;;;0.80;0.80;;;22.80;57.40;;;;;;4928279;29;20447;-86
2023/12/27 10:05:52;;;;;;;0.80;0.80;;;22.80;57.30;;;;;;4910140;29;20613;-84
2023/12/27 10:08:20;;;;;;;0.90;0.90;;;22.90;57.20;;;;;;4931846;29;20464;-86
2023/12/27 10:10:51;;;;;;;0.77;0.77;;;22.90;57.10;;;;;;4936271;29;20444;-85
2023/12/27 10:13:21;;;;;;;0.73;0.73;;;23.00;57.00;;;;;;4935467;29;20456;-84
2023/12/27 10:15:49;;;;;;;0.60;0.60;;;23.10;56.90;;;;;;4932639;29;20449;-83
2023/12/27 10:18:18;;;;;;;0.80;0.70;;;23.10;56.80;;;;;;4930071;29;20469;-86
2023/12/27 10:20:48;;;;;;;0.80;0.80;;;23.10;56.70;;;;;;4932114;29;20473;-84
2023/12/27 10:23:16;;;;;;;1.00;0.87;;;23.20;56.60;;;;;;4928232;29;20492;-85
2023/12/27 10:25:45;;;;;;;0.77;0.77;;;23.20;56.50;;;;;;4942327;29;20451;-84
2023/12/27 10:28:13;;;;;;;0.73;0.73;;;23.30;56.40;;;;;;4941229;29;20449;-85
2023/12/27 10:30:45;;;;;;;0.70;0.70;;;23.30;56.30;;;;;;4942889;29;20456;-84
2023/12/27 10:33:13;;;;;;;0.80;0.80;;;23.30;56.10;;;;;;4936957;29;20549;-83
2023/12/27 10:35:48;;;;;;;0.73;0.73;;;23.30;56.10;;;;;;4927773;29;20937;-83
2023/12/27 10:38:16;;;;;;;0.90;0.80;;;23.40;56.10;;;;;;4936745;29;20452;-83
2023/12/27 10:40:47;;;;;;;0.77;0.77;;;23.50;56.00;;;;;;4926807;29;20560;-88
2023/12/27 10:43:15;;;;;;;0.93;0.80;;;23.50;55.80;;;;;;4930509;29;20475;-83
2023/12/27 10:45:45;;;;;;;0.60;0.60;;;23.60;55.60;;;;;;4934864;29;20467;-84
2023/12/27 10:48:15;;;;;;;0.60;0.60;;;23.70;55.50;;;;;;4915005;29;20475;-84
2023/12/27 10:50:45;;;;;;;0.80;0.80;;;23.80;55.20;;;;;;4930589;29;20535;-84
2023/12/27 10:53:17;;;;;;;0.90;0.83;;;23.90;55.00;;;;;;4930520;29;20478;-84
2023/12/27 10:55:49;;;;;;;0.63;0.63;;;24.00;54.90;;;;;;4932637;29;20457;-83
2023/12/27 10:58:21;;;;;;;0.60;0.60;;;24.10;54.70;;;;;;4927339;29;20452;-85
2023/12/27 11:00:51;;;;;;;0.73;0.73;;;24.20;54.50;;;;;;4929933;29;20460;-84
2023/12/27 11:03:20;;;;;;;0.60;0.60;;;24.20;54.40;;;;;;4931021;29;20519;-84
2023/12/27 11:05:50;;;;;;;0.70;0.70;;;24.30;54.20;;;;;;4935835;29;20451;-84
2023/12/27 11:08:20;;;;;;;0.80;0.80;;;24.40;54.00;;;;;;4928019;29;20897;-84
2023/12/27 11:10:50;;;;;;;0.60;0.60;;;24.40;53.90;;;;;;4937738;28;20469;-84
2023/12/27 11:13:19;;;;;;;0.70;0.70;;;24.50;53.70;;;;;;4923716;29;20516;-85
2023/12/27 11:15:48;;;;;;;0.70;0.60;;;24.60;53.70;;;;;;4935758;29;21133;-85
2023/12/27 11:18:19;;;;;;;0.97;0.60;;;24.70;53.50;;;;;;4925082;29;20453;-84
2023/12/27 11:20:50;;;;;;;0.63;0.63;;;24.70;53.50;;;;;;4927224;29;20460;-87
2023/12/27 11:23:19;;;;;;;1.27;0.77;;;24.70;53.40;;;;;;4923705;29;20585;-84
2023/12/27 11:25:47;;;;;;;0.90;0.90;;;24.70;53.30;;;;;;4920213;29;20469;-84
2023/12/27 11:28:16;;;;;;;1.03;0.90;;;24.70;53.30;;;;;;4924222;29;20463;-84
2023/12/27 11:30:46;;;;;;;0.80;0.80;;;24.70;53.30;;;;;;4923620;29;20517;-84
2023/12/27 11:33:22;;;;;;;0.70;0.70;;;24.70;53.30;;;;;;4924785;29;20848;-86
2023/12/27 11:35:51;;;;;;;0.60;0.60;;;24.70;53.30;;;;;;4926277;29;20459;-85
2023/12/27 11:38:22;;;;;;;0.73;0.73;;;24.70;53.30;;;;;;4930533;29;20955;-84
2023/12/27 11:40:53;;;;;;;0.50;0.50;;;24.70;53.30;;;;;;4917565;29;20546;-84
2023/12/27 11:43:21;;;;;;;0.60;0.60;;;24.80;53.30;;;;;;4919219;29;20494;-84
2023/12/27 11:45:57;;;;;;;1.33;1.03;;;24.80;53.30;;;;;;4937835;29;20477;-86
2023/12/27 11:48:28;;;;;;;0.70;0.70;;;24.90;53.30;;;;;;4928587;29;20464;-84
2023/12/27 11:50:57;;;;;;;0.50;0.50;;;25.00;53.20;;;;;;4943408;29;20461;-84
2023/12/27 11:53:27;;;;;;;0.70;0.70;;;25.00;53.20;;;;;;4928536;29;20519;-86
2023/12/27 11:55:58;;;;;;;0.57;0.57;;;25.10;53.20;;;;;;4926618;29;20459;-85
2023/12/27 11:58:31;;;;;;;0.60;0.60;;;25.10;53.10;;;;;;4923423;29;20497;-87
2023/12/27 12:01:20;;;;;;;0.60;0.60;;;25.20;53.00;;;;;;4920912;29;21025;-84
2023/12/27 12:04:02;;;;;;;0.63;0.63;;;25.20;53.00;;;;;;4934037;29;20461;-85
2023/12/27 12:07:00;;;;;;;0.60;0.60;;;25.20;52.90;;;;;;4938583;29;21254;-89
2023/12/27 12:09:32;;;;;;;0.70;0.70;;;25.20;52.90;;;;;;4886448;29;20480;-88
2023/12/27 12:12:10;;;;;;;0.50;0.50;;;25.20;53.00;;;;;;4932348;29;20452;-86
2023/12/27 12:14:40;;;;;;;0.77;0.77;;;25.20;53.10;;;;;;4934882;29;20548;-87
2023/12/27 12:17:09;;;;;;;0.83;0.80;;;25.20;53.10;;;;;;4920274;29;20469;-87
2023/12/27 12:19:39;;;;;;;0.63;0.63;;;25.20;53.00;;;;;;4932904;29;20454;-85
2023/12/27 12:22:07;;;;;;;0.70;0.70;;;25.30;53.00;;;;;;4933180;29;20454;-91
2023/12/27 12:24:35;;;;;;;1.00;1.00;;;25.30;52.90;;;;;;4936635;29;20446;-85
2023/12/27 12:27:04;;;;;;;0.60;0.60;;;25.30;52.80;;;;;;4932212;29;20964;-85
2023/12/27 12:29:32;;;;;;;0.60;0.60;;;25.20;52.90;;;;;;4933547;29;20540;-84
2023/12/27 12:32:00;;;;;;;0.70;0.70;;;25.10;53.10;;;;;;4927573;29;20454;-85
2023/12/27 12:34:29;;;;;;;0.73;0.73;;;25.00;53.30;;;;;;4912870;29;20465;-85
2023/12/27 12:36:59;;;;;;;0.60;0.60;;;24.90;53.40;;;;;;4933405;29;20969;-85
2023/12/27 12:39:28;;;;;;;0.60;0.60;;;24.80;53.50;;;;;;4931431;29;20542;-86
2023/12/27 12:41:58;;;;;;;0.60;0.60;;;24.70;53.70;;;;;;4933402;29;20476;-83
2023/12/27 12:44:26;;;;;;;0.83;0.80;;;24.60;53.80;;;;;;4935046;29;20467;-83
2023/12/27 12:46:57;;;;;;;0.57;0.57;;;24.50;54.00;;;;;;4929148;29;20468;-83
2023/12/27 12:49:26;;;;;;;0.60;0.60;;;24.50;54.10;;;;;;4920473;29;20466;-86
2023/12/27 12:52:04;;;;;;;0.50;0.50;;;24.40;54.20;;;;;;4929601;29;21671;-85
2023/12/27 12:54:33;;;;;;;0.60;0.60;;;24.40;54.30;;;;;;4917292;29;20854;-85
2023/12/27 12:57:01;;;;;;;0.77;0.73;;;24.30;54.40;;;;;;4934005;29;20455;-85
2023/12/27 12:59:33;;;;;;;0.77;0.70;;;24.30;54.50;;;;;;4932265;29;20498;-86